sensor_id;sensor_type;location;lat;lon;timestamp;pressure;altitude;pressure_sealevel;temperature;humidity
70127;BME280;57491;42.694;23.314;2023-08-21T00:01:44;95447.13;;;24.56;48.10
70127;BME280;57491;42.694;23.314;2023-08-21T00:04:11;95446.59;;;24.54;48.16
70127;BME280;57491;42.694;23.314;2023-08-21T00:06:38;95443.91;;;24.49;48.09
70127;BME280;57491;42.694;23.314;2023-08-21T00:09:05;95443.63;;;24.45;48.30
70127;BME280;57491;42.694;23.314;2023-08-21T00:11:32;95451.09;;;24.48;48.07
70127;BME280;57491;42.694;23.314;2023-08-21T00:13:59;95451.91;;;24.54;48.69
70127;BME280;57491;42.694;23.314;2023-08-21T00:16:28;95437.50;;;24.44;48.87
70127;BME280;57491;42.694;23.314;2023-08-21T00:18:55;95444.72;;;24.49;48.33
70127;BME280;57491;42.694;23.314;2023-08-21T00:21:23;95449.47;;;24.47;48.68
70127;BME280;57491;42.694;23.314;2023-08-21T00:23:50;95449.72;;;24.45;48.71
70127;BME280;57491;42.694;23.314;2023-08-21T00:26:17;95444.41;;;24.45;48.69
70127;BME280;57491;42.694;23.314;2023-08-21T00:28:44;95443.63;;;24.45;49.32
70127;BME280;57491;42.694;23.314;2023-08-21T00:31:11;95447.34;;;24.44;49.32
70127;BME280;57491;42.694;23.314;2023-08-21T00:33:40;95440.97;;;24.45;48.94
70127;BME280;57491;42.694;23.314;2023-08-21T00:36:07;95445.50;;;24.50;49.29
70127;BME280;57491;42.694;23.314;2023-08-21T00:38:34;95449.47;;;24.47;48.96
70127;BME280;57491;42.694;23.314;2023-08-21T00:41:01;95450.81;;;24.50;49.06
70127;BME280;57491;42.694;23.314;2023-08-21T00:43:28;95448.63;;;24.41;49.50
70127;BME280;57491;42.694;23.314;2023-08-21T00:45:55;95452.09;;;24.42;49.21
70127;BME280;57491;42.694;23.314;2023-08-21T00:48:22;95453.41;;;24.39;49.46
70127;BME280;57491;42.694;23.314;2023-08-21T00:50:51;95456.06;;;24.39;49.44
70127;BME280;57491;42.694;23.314;2023-08-21T00:53:18;95454.19;;;24.35;49.69
70127;BME280;57491;42.694;23.314;2023-08-21T00:55:45;95451.72;;;24.28;49.82
70127;BME280;57491;42.694;23.314;2023-08-21T00:58:13;95449.84;;;24.24;50.04
70127;BME280;57491;42.694;23.314;2023-08-21T01:00:41;95452.25;;;24.25;50.16
70127;BME280;57491;42.694;23.314;2023-08-21T01:03:11;95456.47;;;24.21;50.14
70127;BME280;57491;42.694;23.314;2023-08-21T01:05:39;95461.50;;;24.18;50.71
70127;BME280;57491;42.694;23.314;2023-08-21T01:08:11;95459.63;;;24.18;51.12
70127;BME280;57491;42.694;23.314;2023-08-21T01:10:46;95461.63;;;24.06;50.77
70127;BME280;57491;42.694;23.314;2023-08-21T01:13:23;95449.91;;;24.02;50.80
70127;BME280;57491;42.694;23.314;2023-08-21T01:15:55;95460.06;;;24.10;51.18
70127;BME280;57491;42.694;23.314;2023-08-21T01:18:24;95459.81;;;24.12;51.28
70127;BME280;57491;42.694;23.314;2023-08-21T01:20:54;95456.59;;;24.10;51.37
70127;BME280;57491;42.694;23.314;2023-08-21T01:23:34;95457.88;;;24.02;51.28
70127;BME280;57491;42.694;23.314;2023-08-21T01:26:02;95460.53;;;24.02;51.17
70127;BME280;57491;42.694;23.314;2023-08-21T01:28:29;95461.06;;;23.99;50.90
70127;BME280;57491;42.694;23.314;2023-08-21T01:31:00;95459.97;;;23.95;50.80
70127;BME280;57491;42.694;23.314;2023-08-21T01:33:33;95448.72;;;23.88;50.79
70127;BME280;57491;42.694;23.314;2023-08-21T01:36:03;95455.06;;;23.82;50.82
70127;BME280;57491;42.694;23.314;2023-08-21T01:38:32;95465.28;;;23.95;51.02
70127;BME280;57491;42.694;23.314;2023-08-21T01:41:02;95462.91;;;23.98;50.97
70127;BME280;57491;42.694;23.314;2023-08-21T01:43:29;95465.84;;;24.02;52.16
70127;BME280;57491;42.694;23.314;2023-08-21T01:45:56;95463.16;;;23.97;52.32
70127;BME280;57491;42.694;23.314;2023-08-21T01:48:23;95458.41;;;23.99;52.17
70127;BME280;57491;42.694;23.314;2023-08-21T01:50:50;95467.66;;;23.96;52.20
70127;BME280;57491;42.694;23.314;2023-08-21T01:53:17;95468.75;;;24.00;51.86
70127;BME280;57491;42.694;23.314;2023-08-21T01:55:45;95450.63;;;23.92;51.98
70127;BME280;57491;42.694;23.314;2023-08-21T01:58:13;95452.28;;;23.98;52.18
70127;BME280;57491;42.694;23.314;2023-08-21T02:00:40;95461.84;;;23.99;52.73
70127;BME280;57491;42.694;23.314;2023-08-21T02:03:07;95457.25;;;23.90;52.55
70127;BME280;57491;42.694;23.314;2023-08-21T02:05:38;95455.09;;;23.87;52.38
70127;BME280;57491;42.694;23.314;2023-08-21T02:08:06;95451.59;;;23.81;52.72
70127;BME280;57491;42.694;23.314;2023-08-21T02:10:34;95462.53;;;23.85;52.61
70127;BME280;57491;42.694;23.314;2023-08-21T02:13:01;95460.91;;;23.84;52.53
70127;BME280;57491;42.694;23.314;2023-08-21T02:15:29;95461.66;;;23.79;52.59
70127;BME280;57491;42.694;23.314;2023-08-21T02:17:57;95466.44;;;23.77;52.46
70127;BME280;57491;42.694;23.314;2023-08-21T02:20:24;95462.47;;;23.80;52.47
70127;BME280;57491;42.694;23.314;2023-08-21T02:22:51;95446.94;;;23.67;52.74
70127;BME280;57491;42.694;23.314;2023-08-21T02:25:18;95463.97;;;23.71;52.70
70127;BME280;57491;42.694;23.314;2023-08-21T02:27:45;95457.63;;;23.72;52.10
70127;BME280;57491;42.694;23.314;2023-08-21T02:30:12;95449.75;;;23.55;52.77
70127;BME280;57491;42.694;23.314;2023-08-21T02:32:41;95458.25;;;23.57;52.85
70127;BME280;57491;42.694;23.314;2023-08-21T02:35:08;95467.47;;;23.49;52.93
70127;BME280;57491;42.694;23.314;2023-08-21T02:37:36;95449.06;;;23.43;52.78
70127;BME280;57491;42.694;23.314;2023-08-21T02:40:06;95458.34;;;23.40;52.66
70127;BME280;57491;42.694;23.314;2023-08-21T02:42:35;95449.81;;;23.38;52.74
70127;BME280;57491;42.694;23.314;2023-08-21T02:45:02;95464.63;;;23.34;53.00
70127;BME280;57491;42.694;23.314;2023-08-21T02:47:34;95467.09;;;23.19;53.34
70127;BME280;57491;42.694;23.314;2023-08-21T02:50:04;95454.78;;;23.08;53.56
70127;BME280;57491;42.694;23.314;2023-08-21T02:52:31;95461.75;;;23.14;53.53
70127;BME280;57491;42.694;23.314;2023-08-21T02:54:58;95465.88;;;23.05;53.88
70127;BME280;57491;42.694;23.314;2023-08-21T02:57:26;95462.13;;;23.01;54.25
70127;BME280;57491;42.694;23.314;2023-08-21T02:59:53;95461.06;;;23.02;53.99
70127;BME280;57491;42.694;23.314;2023-08-21T03:02:21;95462.72;;;23.08;53.69
70127;BME280;57491;42.694;23.314;2023-08-21T03:04:49;95464.78;;;23.01;53.23
70127;BME280;57491;42.694;23.314;2023-08-21T03:07:18;95473.84;;;23.05;53.95
70127;BME280;57491;42.694;23.314;2023-08-21T03:09:46;95472.25;;;23.04;53.97
70127;BME280;57491;42.694;23.314;2023-08-21T03:12:13;95474.38;;;23.07;53.85
70127;BME280;57491;42.694;23.314;2023-08-21T03:14:40;95477.31;;;23.05;53.35
70127;BME280;57491;42.694;23.314;2023-08-21T03:17:07;95474.09;;;23.03;53.44
70127;BME280;57491;42.694;23.314;2023-08-21T03:19:35;95468.47;;;23.00;53.67
70127;BME280;57491;42.694;23.314;2023-08-21T03:22:02;95482.03;;;23.03;53.36
70127;BME280;57491;42.694;23.314;2023-08-21T03:24:30;95481.47;;;23.01;53.50
70127;BME280;57491;42.694;23.314;2023-08-21T03:26:57;95487.50;;;22.97;53.82
70127;BME280;57491;42.694;23.314;2023-08-21T03:29:24;95485.59;;;22.92;54.22
70127;BME280;57491;42.694;23.314;2023-08-21T03:31:53;95477.47;;;22.99;53.73
70127;BME280;57491;42.694;23.314;2023-08-21T03:34:20;95488.81;;;22.94;53.45
70127;BME280;57491;42.694;23.314;2023-08-21T03:36:47;95487.22;;;22.93;53.89
70127;BME280;57491;42.694;23.314;2023-08-21T03:39:14;95479.81;;;22.95;53.72
70127;BME280;57491;42.694;23.314;2023-08-21T03:41:43;95470.13;;;22.84;53.82
70127;BME280;57491;42.694;23.314;2023-08-21T03:44:10;95485.50;;;22.82;53.96
70127;BME280;57491;42.694;23.314;2023-08-21T03:46:37;95490.53;;;22.84;54.03
70127;BME280;57491;42.694;23.314;2023-08-21T03:49:05;95481.38;;;22.75;54.31
70127;BME280;57491;42.694;23.314;2023-08-21T03:51:32;95488.78;;;22.73;54.56
70127;BME280;57491;42.694;23.314;2023-08-21T03:53:59;95480.56;;;22.74;54.68
70127;BME280;57491;42.694;23.314;2023-08-21T03:56:26;95486.34;;;22.88;54.69
70127;BME280;57491;42.694;23.314;2023-08-21T03:58:54;95491.69;;;22.93;55.26
70127;BME280;57491;42.694;23.314;2023-08-21T04:01:21;95487.47;;;22.92;55.39
70127;BME280;57491;42.694;23.314;2023-08-21T04:03:48;95465.84;;;22.83;54.80
70127;BME280;57491;42.694;23.314;2023-08-21T04:06:15;95493.44;;;23.04;55.20
70127;BME280;57491;42.694;23.314;2023-08-21T04:08:42;95494.81;;;23.06;55.23
70127;BME280;57491;42.694;23.314;2023-08-21T04:11:10;95491.09;;;23.07;55.29
70127;BME280;57491;42.694;23.314;2023-08-21T04:13:37;95486.91;;;23.11;55.28
70127;BME280;57491;42.694;23.314;2023-08-21T04:16:06;95498.31;;;23.12;55.18
70127;BME280;57491;42.694;23.314;2023-08-21T04:18:33;95503.63;;;23.12;55.40
70127;BME280;57491;42.694;23.314;2023-08-21T04:21:02;95496.97;;;23.09;55.28
70127;BME280;57491;42.694;23.314;2023-08-21T04:23:29;95495.66;;;23.12;55.17
70127;BME280;57491;42.694;23.314;2023-08-21T04:26:00;95509.00;;;23.17;55.32
70127;BME280;57491;42.694;23.314;2023-08-21T04:28:27;95512.09;;;23.31;55.02
70127;BME280;57491;42.694;23.314;2023-08-21T04:30:54;95508.44;;;23.37;54.79
70127;BME280;57491;42.694;23.314;2023-08-21T04:33:25;95507.22;;;23.44;54.59
70127;BME280;57491;42.694;23.314;2023-08-21T04:35:51;95499.88;;;23.51;54.13
70127;BME280;57491;42.694;23.314;2023-08-21T04:38:19;95504.72;;;23.60;53.97
70127;BME280;57491;42.694;23.314;2023-08-21T04:40:46;95502.13;;;23.65;53.75
70127;BME280;57491;42.694;23.314;2023-08-21T04:43:13;95506.00;;;23.79;53.69
70127;BME280;57491;42.694;23.314;2023-08-21T04:45:47;95514.06;;;23.89;53.35
70127;BME280;57491;42.694;23.314;2023-08-21T04:48:14;95510.94;;;23.97;52.33
70127;BME280;57491;42.694;23.314;2023-08-21T04:50:42;95506.78;;;24.06;51.86
70127;BME280;57491;42.694;23.314;2023-08-21T04:53:09;95512.16;;;24.11;51.83
70127;BME280;57491;42.694;23.314;2023-08-21T04:55:36;95520.50;;;24.20;52.07
70127;BME280;57491;42.694;23.314;2023-08-21T04:58:06;95514.97;;;24.26;51.46
70127;BME280;57491;42.694;23.314;2023-08-21T05:00:33;95516.94;;;24.41;51.35
70127;BME280;57491;42.694;23.314;2023-08-21T05:03:00;95516.22;;;24.51;50.79
70127;BME280;57491;42.694;23.314;2023-08-21T05:05:27;95525.34;;;24.65;49.86
70127;BME280;57491;42.694;23.314;2023-08-21T05:07:55;95519.22;;;24.64;49.40
70127;BME280;57491;42.694;23.314;2023-08-21T05:10:22;95514.56;;;24.81;48.50
70127;BME280;57491;42.694;23.314;2023-08-21T05:12:49;95521.03;;;24.91;48.11
70127;BME280;57491;42.694;23.314;2023-08-21T05:15:17;95530.44;;;25.03;47.77
70127;BME280;57491;42.694;23.314;2023-08-21T05:17:44;95531.50;;;25.07;47.56
70127;BME280;57491;42.694;23.314;2023-08-21T05:20:11;95531.56;;;25.22;46.89
70127;BME280;57491;42.694;23.314;2023-08-21T05:22:40;95533.97;;;25.24;46.78
70127;BME280;57491;42.694;23.314;2023-08-21T05:25:09;95533.50;;;25.37;46.26
70127;BME280;57491;42.694;23.314;2023-08-21T05:27:36;95531.13;;;25.41;46.49
70127;BME280;57491;42.694;23.314;2023-08-21T05:30:05;95526.34;;;25.43;46.12
70127;BME280;57491;42.694;23.314;2023-08-21T05:32:32;95527.66;;;25.45;46.53
70127;BME280;57491;42.694;23.314;2023-08-21T05:34:59;95530.69;;;25.59;46.24
70127;BME280;57491;42.694;23.314;2023-08-21T05:37:26;95534.47;;;25.78;45.70
70127;BME280;57491;42.694;23.314;2023-08-21T05:39:53;95529.19;;;25.88;45.88
70127;BME280;57491;42.694;23.314;2023-08-21T05:42:22;95521.47;;;25.97;45.69
70127;BME280;57491;42.694;23.314;2023-08-21T05:44:49;95519.34;;;26.14;44.79
70127;BME280;57491;42.694;23.314;2023-08-21T05:47:16;95521.25;;;26.29;44.90
70127;BME280;57491;42.694;23.314;2023-08-21T05:49:43;95526.88;;;26.42;44.40
70127;BME280;57491;42.694;23.314;2023-08-21T05:52:10;95523.66;;;26.60;43.74
70127;BME280;57491;42.694;23.314;2023-08-21T05:54:37;95471.38;;;26.44;43.49
70127;BME280;57491;42.694;23.314;2023-08-21T05:57:04;95530.84;;;26.90;43.03
70127;BME280;57491;42.694;23.314;2023-08-21T05:59:32;95512.94;;;27.06;42.80
70127;BME280;57491;42.694;23.314;2023-08-21T06:02:00;95527.00;;;27.27;42.43
70127;BME280;57491;42.694;23.314;2023-08-21T06:04:27;95529.09;;;27.40;42.28
70127;BME280;57491;42.694;23.314;2023-08-21T06:06:54;95522.38;;;27.47;41.39
70127;BME280;57491;42.694;23.314;2023-08-21T06:09:22;95520.22;;;27.60;42.09
70127;BME280;57491;42.694;23.314;2023-08-21T06:11:49;95522.56;;;27.71;41.49
70127;BME280;57491;42.694;23.314;2023-08-21T06:14:16;95523.53;;;27.90;40.74
70127;BME280;57491;42.694;23.314;2023-08-21T06:16:45;95528.25;;;28.04;40.18
70127;BME280;57491;42.694;23.314;2023-08-21T06:19:12;95526.38;;;28.14;40.00
70127;BME280;57491;42.694;23.314;2023-08-21T06:21:39;95520.91;;;28.24;39.44
70127;BME280;57491;42.694;23.314;2023-08-21T06:24:06;95523.16;;;28.46;39.68
70127;BME280;57491;42.694;23.314;2023-08-21T06:26:33;95523.53;;;28.68;39.04
70127;BME280;57491;42.694;23.314;2023-08-21T06:29:00;95527.66;;;28.85;38.74
70127;BME280;57491;42.694;23.314;2023-08-21T06:31:27;95529.09;;;29.01;37.70
70127;BME280;57491;42.694;23.314;2023-08-21T06:33:55;95527.31;;;29.20;38.41
70127;BME280;57491;42.694;23.314;2023-08-21T06:36:22;95531.78;;;29.30;37.47
70127;BME280;57491;42.694;23.314;2023-08-21T06:38:49;95533.75;;;29.43;38.33
70127;BME280;57491;42.694;23.314;2023-08-21T06:41:17;95541.69;;;29.53;37.66
70127;BME280;57491;42.694;23.314;2023-08-21T06:43:45;95535.47;;;29.57;37.40
70127;BME280;57491;42.694;23.314;2023-08-21T06:46:12;95544.09;;;29.73;36.84
70127;BME280;57491;42.694;23.314;2023-08-21T06:48:40;95530.78;;;29.87;37.00
70127;BME280;57491;42.694;23.314;2023-08-21T06:51:09;95535.97;;;30.02;36.83
70127;BME280;57491;42.694;23.314;2023-08-21T06:53:36;95533.44;;;30.10;36.22
70127;BME280;57491;42.694;23.314;2023-08-21T06:56:03;95534.59;;;30.23;36.44
70127;BME280;57491;42.694;23.314;2023-08-21T06:58:30;95531.38;;;30.40;36.30
70127;BME280;57491;42.694;23.314;2023-08-21T07:00:57;95537.75;;;30.63;35.77
70127;BME280;57491;42.694;23.314;2023-08-21T07:03:25;95537.38;;;30.69;35.36
70127;BME280;57491;42.694;23.314;2023-08-21T07:05:55;95534.03;;;30.91;35.22
70127;BME280;57491;42.694;23.314;2023-08-21T07:08:24;95530.91;;;31.03;34.95
70127;BME280;57491;42.694;23.314;2023-08-21T07:10:52;95533.31;;;31.18;34.75
70127;BME280;57491;42.694;23.314;2023-08-21T07:13:20;95527.94;;;31.31;33.93
70127;BME280;57491;42.694;23.314;2023-08-21T07:15:47;95532.13;;;31.37;33.67
70127;BME280;57491;42.694;23.314;2023-08-21T07:18:14;95529.72;;;31.50;33.86
70127;BME280;57491;42.694;23.314;2023-08-21T07:20:41;95526.78;;;31.65;34.28
70127;BME280;57491;42.694;23.314;2023-08-21T07:23:08;95528.75;;;31.59;33.93
70127;BME280;57491;42.694;23.314;2023-08-21T07:25:36;95528.34;;;31.66;33.86
70127;BME280;57491;42.694;23.314;2023-08-21T07:28:04;95532.31;;;31.82;32.96
70127;BME280;57491;42.694;23.314;2023-08-21T07:30:31;95523.94;;;31.97;33.11
70127;BME280;57491;42.694;23.314;2023-08-21T07:32:58;95524.41;;;32.13;33.32
70127;BME280;57491;42.694;23.314;2023-08-21T07:35:25;95529.84;;;32.21;32.31
70127;BME280;57491;42.694;23.314;2023-08-21T07:37:53;95526.41;;;32.29;32.50
70127;BME280;57491;42.694;23.314;2023-08-21T07:40:20;95531.81;;;32.29;32.41
70127;BME280;57491;42.694;23.314;2023-08-21T07:42:49;95523.69;;;32.43;32.50
70127;BME280;57491;42.694;23.314;2023-08-21T07:45:16;95517.88;;;32.50;32.07
70127;BME280;57491;42.694;23.314;2023-08-21T07:47:43;95514.69;;;32.70;32.09
70127;BME280;57491;42.694;23.314;2023-08-21T07:50:10;95512.13;;;32.87;31.82
70127;BME280;57491;42.694;23.314;2023-08-21T07:52:40;95514.13;;;33.12;31.45
70127;BME280;57491;42.694;23.314;2023-08-21T07:55:08;95514.09;;;33.35;30.47
70127;BME280;57491;42.694;23.314;2023-08-21T07:57:35;95514.78;;;33.49;30.09
70127;BME280;57491;42.694;23.314;2023-08-21T08:00:04;95517.19;;;33.59;30.28
70127;BME280;57491;42.694;23.314;2023-08-21T08:02:34;95515.03;;;33.78;29.92
70127;BME280;57491;42.694;23.314;2023-08-21T08:05:00;95510.28;;;33.84;29.76
70127;BME280;57491;42.694;23.314;2023-08-21T08:07:27;95511.38;;;33.91;29.32
70127;BME280;57491;42.694;23.314;2023-08-21T08:09:54;95509.63;;;33.87;29.25
70127;BME280;57491;42.694;23.314;2023-08-21T08:12:21;95497.28;;;34.03;29.07
70127;BME280;57491;42.694;23.314;2023-08-21T08:14:48;95493.81;;;34.28;28.80
70127;BME280;57491;42.694;23.314;2023-08-21T08:17:18;95493.00;;;34.54;27.65
70127;BME280;57491;42.694;23.314;2023-08-21T08:19:45;95493.44;;;34.81;27.85
70127;BME280;57491;42.694;23.314;2023-08-21T08:22:12;95496.38;;;35.06;27.57
70127;BME280;57491;42.694;23.314;2023-08-21T08:24:39;95493.00;;;35.26;27.19
70127;BME280;57491;42.694;23.314;2023-08-21T08:27:07;95494.16;;;35.46;27.59
70127;BME280;57491;42.694;23.314;2023-08-21T08:29:34;95493.91;;;35.68;26.65
70127;BME280;57491;42.694;23.314;2023-08-21T08:32:01;95497.63;;;35.84;25.83
70127;BME280;57491;42.694;23.314;2023-08-21T08:34:30;95490.75;;;35.87;25.80
70127;BME280;57491;42.694;23.314;2023-08-21T08:36:57;95490.63;;;36.04;25.45
70127;BME280;57491;42.694;23.314;2023-08-21T08:39:24;95483.19;;;36.21;25.13
70127;BME280;57491;42.694;23.314;2023-08-21T08:41:57;95488.59;;;36.42;24.85
70127;BME280;57491;42.694;23.314;2023-08-21T08:44:25;95481.41;;;36.58;24.74
70127;BME280;57491;42.694;23.314;2023-08-21T08:46:52;95482.34;;;36.62;24.45
70127;BME280;57491;42.694;23.314;2023-08-21T08:49:20;95477.75;;;36.75;24.24
70127;BME280;57491;42.694;23.314;2023-08-21T08:51:50;95467.97;;;36.08;25.30
70127;BME280;57491;42.694;23.314;2023-08-21T08:54:20;95463.78;;;36.19;25.90
70127;BME280;57491;42.694;23.314;2023-08-21T08:56:47;95468.59;;;36.67;24.86
70127;BME280;57491;42.694;23.314;2023-08-21T08:59:14;95468.34;;;37.05;24.66
70127;BME280;57491;42.694;23.314;2023-08-21T09:01:41;95466.91;;;37.44;24.63
70127;BME280;57491;42.694;23.314;2023-08-21T09:04:09;95473.56;;;37.71;23.61
70127;BME280;57491;42.694;23.314;2023-08-21T09:06:37;95458.97;;;37.76;23.25
70127;BME280;57491;42.694;23.314;2023-08-21T09:09:07;95469.56;;;37.93;23.40
70127;BME280;57491;42.694;23.314;2023-08-21T09:11:36;95464.78;;;38.14;23.15
70127;BME280;57491;42.694;23.314;2023-08-21T09:14:10;95462.44;;;38.40;22.66
70127;BME280;57491;42.694;23.314;2023-08-21T09:16:37;95464.25;;;38.64;22.23
70127;BME280;57491;42.694;23.314;2023-08-21T09:19:04;95468.84;;;38.76;21.67
70127;BME280;57491;42.694;23.314;2023-08-21T09:21:32;95460.81;;;38.95;21.59
70127;BME280;57491;42.694;23.314;2023-08-21T09:24:00;95464.41;;;38.99;21.31
70127;BME280;57491;42.694;23.314;2023-08-21T09:26:31;95459.16;;;38.91;21.28
70127;BME280;57491;42.694;23.314;2023-08-21T09:29:00;95460.97;;;39.02;20.40
70127;BME280;57491;42.694;23.314;2023-08-21T09:31:31;95450.91;;;39.03;20.75
70127;BME280;57491;42.694;23.314;2023-08-21T09:33:59;95435.81;;;39.05;20.66
70127;BME280;57491;42.694;23.314;2023-08-21T09:36:30;95449.50;;;39.40;20.37
70127;BME280;57491;42.694;23.314;2023-08-21T09:38:57;95446.03;;;39.27;19.86
70127;BME280;57491;42.694;23.314;2023-08-21T09:41:25;95445.72;;;39.13;20.85
70127;BME280;57491;42.694;23.314;2023-08-21T09:43:58;95451.94;;;39.30;20.67
70127;BME280;57491;42.694;23.314;2023-08-21T09:46:26;95436.78;;;39.79;20.04
70127;BME280;57491;42.694;23.314;2023-08-21T09:48:53;95445.16;;;40.25;19.84
70127;BME280;57491;42.694;23.314;2023-08-21T09:51:21;95446.59;;;40.19;19.83
70127;BME280;57491;42.694;23.314;2023-08-21T09:53:48;95436.41;;;39.46;20.01
70127;BME280;57491;42.694;23.314;2023-08-21T09:56:17;95400.06;;;39.22;20.26
70127;BME280;57491;42.694;23.314;2023-08-21T09:58:47;95430.22;;;39.80;19.81
70127;BME280;57491;42.694;23.314;2023-08-21T10:01:16;95431.22;;;40.10;19.62
70127;BME280;57491;42.694;23.314;2023-08-21T10:03:44;95423.41;;;40.47;19.10
70127;BME280;57491;42.694;23.314;2023-08-21T10:06:16;95419.34;;;40.38;18.23
70127;BME280;57491;42.694;23.314;2023-08-21T10:08:46;95425.00;;;40.29;18.27
70127;BME280;57491;42.694;23.314;2023-08-21T10:11:14;95413.16;;;40.60;18.72
70127;BME280;57491;42.694;23.314;2023-08-21T10:13:46;95414.50;;;40.92;18.67
70127;BME280;57491;42.694;23.314;2023-08-21T10:16:15;95419.09;;;41.34;17.97
70127;BME280;57491;42.694;23.314;2023-08-21T10:18:44;95420.59;;;41.58;18.28
70127;BME280;57491;42.694;23.314;2023-08-21T10:21:12;95401.72;;;41.75;17.52
70127;BME280;57491;42.694;23.314;2023-08-21T10:23:40;95398.81;;;41.88;17.12
70127;BME280;57491;42.694;23.314;2023-08-21T10:26:09;95412.84;;;41.86;17.14
70127;BME280;57491;42.694;23.314;2023-08-21T10:28:52;95400.50;;;41.99;17.76
70127;BME280;57491;42.694;23.314;2023-08-21T10:31:30;95394.75;;;42.08;17.22
70127;BME280;57491;42.694;23.314;2023-08-21T10:33:58;95402.91;;;42.38;17.44
70127;BME280;57491;42.694;23.314;2023-08-21T10:36:38;95394.50;;;42.53;17.62
70127;BME280;57491;42.694;23.314;2023-08-21T10:39:13;95383.41;;;42.39;17.15
70127;BME280;57491;42.694;23.314;2023-08-21T10:41:40;95384.69;;;42.49;16.96
70127;BME280;57491;42.694;23.314;2023-08-21T10:44:07;95379.69;;;42.21;16.66
70127;BME280;57491;42.694;23.314;2023-08-21T10:46:52;95377.91;;;42.32;16.50
70127;BME280;57491;42.694;23.314;2023-08-21T10:49:19;95369.47;;;42.51;16.07
70127;BME280;57491;42.694;23.314;2023-08-21T10:51:46;95368.13;;;42.68;16.27
70127;BME280;57491;42.694;23.314;2023-08-21T10:54:16;95358.66;;;42.25;16.27
70127;BME280;57491;42.694;23.314;2023-08-21T10:56:43;95358.81;;;42.39;16.67
70127;BME280;57491;42.694;23.314;2023-08-21T10:59:10;95369.38;;;42.37;15.66
70127;BME280;57491;42.694;23.314;2023-08-21T11:01:44;95364.97;;;41.96;16.05
70127;BME280;57491;42.694;23.314;2023-08-21T11:04:12;95365.72;;;41.66;16.09
70127;BME280;57491;42.694;23.314;2023-08-21T11:06:40;95364.41;;;41.83;15.54
70127;BME280;57491;42.694;23.314;2023-08-21T11:09:12;95353.88;;;42.15;15.51
70127;BME280;57491;42.694;23.314;2023-08-21T11:11:40;95347.03;;;42.32;15.44
70127;BME280;57491;42.694;23.314;2023-08-21T11:14:07;95355.41;;;42.90;15.17
70127;BME280;57491;42.694;23.314;2023-08-21T11:16:34;95357.53;;;42.66;14.98
70127;BME280;57491;42.694;23.314;2023-08-21T11:19:03;95345.50;;;42.34;15.61
70127;BME280;57491;42.694;23.314;2023-08-21T11:21:32;95358.94;;;41.83;15.71
70127;BME280;57491;42.694;23.314;2023-08-21T11:23:59;95346.97;;;41.09;16.08
70127;BME280;57491;42.694;23.314;2023-08-21T11:26:26;95344.59;;;41.60;15.73
70127;BME280;57491;42.694;23.314;2023-08-21T11:28:55;95344.41;;;41.46;15.83
70127;BME280;57491;42.694;23.314;2023-08-21T11:31:22;95338.22;;;42.12;16.08
70127;BME280;57491;42.694;23.314;2023-08-21T11:33:50;95342.50;;;42.87;15.44
70127;BME280;57491;42.694;23.314;2023-08-21T11:36:17;95340.88;;;43.33;15.14
70127;BME280;57491;42.694;23.314;2023-08-21T11:38:57;95289.41;;;42.98;14.30
70127;BME280;57491;42.694;23.314;2023-08-21T11:41:25;95329.34;;;43.68;14.40
70127;BME280;57491;42.694;23.314;2023-08-21T11:43:52;95334.84;;;43.75;14.05
70127;BME280;57491;42.694;23.314;2023-08-21T11:46:19;95325.22;;;44.13;13.79
70127;BME280;57491;42.694;23.314;2023-08-21T11:48:46;95333.88;;;44.26;14.07
70127;BME280;57491;42.694;23.314;2023-08-21T11:51:13;95340.53;;;44.32;13.79
70127;BME280;57491;42.694;23.314;2023-08-21T11:53:41;95342.53;;;44.45;13.46
70127;BME280;57491;42.694;23.314;2023-08-21T11:56:12;95345.91;;;44.00;13.98
70127;BME280;57491;42.694;23.314;2023-08-21T11:58:40;95319.41;;;44.36;13.23
70127;BME280;57491;42.694;23.314;2023-08-21T12:01:08;95330.81;;;44.77;13.67
70127;BME280;57491;42.694;23.314;2023-08-21T12:03:36;95327.28;;;45.15;13.28
70127;BME280;57491;42.694;23.314;2023-08-21T12:06:06;95330.03;;;45.19;12.58
70127;BME280;57491;42.694;23.314;2023-08-21T12:08:33;95332.00;;;45.25;12.27
70127;BME280;57491;42.694;23.314;2023-08-21T12:11:00;95335.91;;;45.39;12.10
70127;BME280;57491;42.694;23.314;2023-08-21T12:13:29;95326.06;;;45.30;12.30
70127;BME280;57491;42.694;23.314;2023-08-21T12:15:56;95330.44;;;45.21;12.70
70127;BME280;57491;42.694;23.314;2023-08-21T12:18:23;95315.44;;;45.54;12.08
70127;BME280;57491;42.694;23.314;2023-08-21T12:20:50;95311.84;;;45.71;11.78
70127;BME280;57491;42.694;23.314;2023-08-21T12:23:18;95305.63;;;45.56;12.25
70127;BME280;57491;42.694;23.314;2023-08-21T12:25:45;95303.75;;;45.25;12.73
70127;BME280;57491;42.694;23.314;2023-08-21T12:28:12;95290.06;;;44.82;13.04
70127;BME280;57491;42.694;23.314;2023-08-21T12:30:41;95304.34;;;43.84;14.03
70127;BME280;57491;42.694;23.314;2023-08-21T12:33:08;95304.75;;;43.10;13.94
70127;BME280;57491;42.694;23.314;2023-08-21T12:35:35;95305.31;;;42.38;14.36
70127;BME280;57491;42.694;23.314;2023-08-21T12:38:11;95295.97;;;42.02;15.74
70127;BME280;57491;42.694;23.314;2023-08-21T12:40:38;95295.50;;;41.63;16.44
70127;BME280;57491;42.694;23.314;2023-08-21T12:43:05;95293.28;;;41.16;15.75
70127;BME280;57491;42.694;23.314;2023-08-21T12:45:33;95282.81;;;40.92;16.07
70127;BME280;57491;42.694;23.314;2023-08-21T12:48:01;95290.22;;;40.46;16.28
70127;BME280;57491;42.694;23.314;2023-08-21T12:50:29;95286.44;;;40.08;16.11
70127;BME280;57491;42.694;23.314;2023-08-21T12:52:57;95283.81;;;39.93;16.75
70127;BME280;57491;42.694;23.314;2023-08-21T12:55:24;95270.94;;;39.51;16.70